sensor_id;sensor_type;location;lat;lon;timestamp;pressure;altitude;pressure_sealevel;temperature;humidity
56912;BME280;42800;53.928;27.662;2023-02-12T00:01:44;99485.72;;;-2.19;100.00
56912;BME280;42800;53.928;27.662;2023-02-12T00:04:11;99454.53;;;-2.15;100.00
56912;BME280;42800;53.928;27.662;2023-02-12T00:06:37;99426.91;;;-2.30;100.00
56912;BME280;42800;53.928;27.662;2023-02-12T00:09:04;99441.41;;;-2.26;100.00
56912;BME280;42800;53.928;27.662;2023-02-12T00:11:30;99437.16;;;-2.43;100.00
56912;BME280;42800;53.928;27.662;2023-02-12T00:13:57;99442.81;;;-2.49;100.00
56912;BME280;42800;53.928;27.662;2023-02-12T00:16:24;99418.94;;;-2.56;100.00
56912;BME280;42800;53.928;27.662;2023-02-12T00:18:52;99419.47;;;-2.54;100.00
56912;BME280;42800;53.928;27.662;2023-02-12T00:21:20;99397.97;;;-2.49;100.00
56912;BME280;42800;53.928;27.662;2023-02-12T00:23:46;99371.94;;;-2.53;100.00
56912;BME280;42800;53.928;27.662;2023-02-12T00:26:15;99332.53;;;-2.63;100.00
56912;BME280;42800;53.928;27.662;2023-02-12T00:28:42;99348.28;;;-2.41;100.00
56912;BME280;42800;53.928;27.662;2023-02-12T00:31:10;99354.19;;;-2.44;100.00
56912;BME280;42800;53.928;27.662;2023-02-12T00:33:37;99354.94;;;-2.33;100.00
56912;BME280;42800;53.928;27.662;2023-02-12T00:36:04;99344.25;;;-2.39;100.00
56912;BME280;42800;53.928;27.662;2023-02-12T00:38:32;99347.47;;;-2.42;100.00
56912;BME280;42800;53.928;27.662;2023-02-12T00:40:58;99323.38;;;-2.57;100.00
56912;BME280;42800;53.928;27.662;2023-02-12T00:43:24;99348.31;;;-2.51;100.00
56912;BME280;42800;53.928;27.662;2023-02-12T00:45:51;99363.03;;;-2.39;100.00
56912;BME280;42800;53.928;27.662;2023-02-12T00:48:17;99372.22;;;-2.50;100.00
56912;BME280;42800;53.928;27.662;2023-02-12T00:50:44;99360.31;;;-2.33;100.00
56912;BME280;42800;53.928;27.662;2023-02-12T00:53:10;99318.63;;;-2.16;100.00
56912;BME280;42800;53.928;27.662;2023-02-12T00:55:37;99290.25;;;-2.37;100.00
56912;BME280;42800;53.928;27.662;2023-02-12T00:58:04;99290.81;;;-2.35;100.00
56912;BME280;42800;53.928;27.662;2023-02-12T01:00:30;99281.09;;;-2.26;100.00
56912;BME280;42800;53.928;27.662;2023-02-12T01:02:56;99245.16;;;-2.35;100.00
56912;BME280;42800;53.928;27.662;2023-02-12T01:05:23;99226.19;;;-2.09;100.00
56912;BME280;42800;53.928;27.662;2023-02-12T01:07:50;99193.59;;;-2.37;100.00
56912;BME280;42800;53.928;27.662;2023-02-12T01:10:17;99186.41;;;-2.47;100.00
56912;BME280;42800;53.928;27.662;2023-02-12T01:12:44;99173.28;;;-2.48;100.00
56912;BME280;42800;53.928;27.662;2023-02-12T01:15:10;99186.47;;;-2.52;100.00
56912;BME280;42800;53.928;27.662;2023-02-12T01:17:36;99204.97;;;-2.50;100.00
56912;BME280;42800;53.928;27.662;2023-02-12T01:20:03;99231.00;;;-2.46;100.00
56912;BME280;42800;53.928;27.662;2023-02-12T01:22:33;99206.28;;;-2.43;100.00
56912;BME280;42800;53.928;27.662;2023-02-12T01:24:59;99163.16;;;-2.56;100.00
56912;BME280;42800;53.928;27.662;2023-02-12T01:27:25;99140.81;;;-2.52;100.00
56912;BME280;42800;53.928;27.662;2023-02-12T01:29:52;99102.78;;;-2.59;100.00
56912;BME280;42800;53.928;27.662;2023-02-12T01:32:18;99088.97;;;-2.81;100.00
56912;BME280;42800;53.928;27.662;2023-02-12T01:34:45;99085.44;;;-2.77;100.00
56912;BME280;42800;53.928;27.662;2023-02-12T01:37:11;99087.88;;;-2.80;100.00
56912;BME280;42800;53.928;27.662;2023-02-12T01:39:37;99087.22;;;-3.01;100.00
56912;BME280;42800;53.928;27.662;2023-02-12T01:42:03;99117.00;;;-3.03;100.00
56912;BME280;42800;53.928;27.662;2023-02-12T01:44:32;99150.22;;;-2.99;100.00
56912;BME280;42800;53.928;27.662;2023-02-12T01:47:04;99171.91;;;-2.90;100.00
56912;BME280;42800;53.928;27.662;2023-02-12T01:49:34;99180.81;;;-3.00;100.00
56912;BME280;42800;53.928;27.662;2023-02-12T01:52:04;99245.13;;;-2.85;100.00
56912;BME280;42800;53.928;27.662;2023-02-12T01:54:32;99281.31;;;-2.77;100.00
56912;BME280;42800;53.928;27.662;2023-02-12T01:57:01;99300.38;;;-2.84;100.00
56912;BME280;42800;53.928;27.662;2023-02-12T01:59:28;99319.44;;;-2.90;100.00
56912;BME280;42800;53.928;27.662;2023-02-12T02:01:55;99358.38;;;-2.93;100.00
56912;BME280;42800;53.928;27.662;2023-02-12T02:04:23;99355.16;;;-3.05;100.00
56912;BME280;42800;53.928;27.662;2023-02-12T02:06:56;99338.81;;;-3.19;100.00
56912;BME280;42800;53.928;27.662;2023-02-12T02:09:23;99348.47;;;-3.18;100.00
56912;BME280;42800;53.928;27.662;2023-02-12T02:11:50;99343.66;;;-3.31;100.00
56912;BME280;42800;53.928;27.662;2023-02-12T02:14:31;99341.25;;;-3.22;100.00
56912;BME280;42800;53.928;27.662;2023-02-12T02:17:15;99341.78;;;-3.41;100.00
56912;BME280;42800;53.928;27.662;2023-02-12T02:20:13;99372.34;;;-3.32;100.00
56912;BME280;42800;53.928;27.662;2023-02-12T02:22:43;99384.16;;;-3.22;100.00
56912;BME280;42800;53.928;27.662;2023-02-12T02:25:33;99387.38;;;-3.36;100.00
56912;BME280;42800;53.928;27.662;2023-02-12T02:28:10;99406.38;;;-3.27;100.00
56912;BME280;42800;53.928;27.662;2023-02-12T02:30:41;99427.56;;;-3.31;100.00
56912;BME280;42800;53.928;27.662;2023-02-12T02:33:19;99428.38;;;-3.35;100.00
56912;BME280;42800;53.928;27.662;2023-02-12T02:35:52;99424.34;;;-3.53;100.00
56912;BME280;42800;53.928;27.662;2023-02-12T02:38:24;99441.25;;;-3.42;100.00
56912;BME280;42800;53.928;27.662;2023-02-12T02:41:00;99435.06;;;-3.43;100.00
56912;BME280;42800;53.928;27.662;2023-02-12T02:43:28;99447.13;;;-3.35;100.00
56912;BME280;42800;53.928;27.662;2023-02-12T02:46:01;99455.44;;;-3.42;100.00
56912;BME280;42800;53.928;27.662;2023-02-12T02:48:33;99479.03;;;-3.34;100.00
56912;BME280;42800;53.928;27.662;2023-02-12T02:51:03;99485.50;;;-3.19;100.00
56912;BME280;42800;53.928;27.662;2023-02-12T02:53:34;99469.38;;;-3.35;100.00
56912;BME280;42800;53.928;27.662;2023-02-12T02:56:05;99495.13;;;-3.34;100.00
56912;BME280;42800;53.928;27.662;2023-02-12T02:58:36;99510.16;;;-3.17;100.00
56912;BME280;42800;53.928;27.662;2023-02-12T03:01:08;99513.38;;;-3.10;100.00
56912;BME280;42800;53.928;27.662;2023-02-12T03:03:39;99500.53;;;-3.18;100.00
56912;BME280;42800;53.928;27.662;2023-02-12T03:06:09;99507.47;;;-3.17;100.00
56912;BME280;42800;53.928;27.662;2023-02-12T03:08:40;99519.81;;;-3.26;100.00
56912;BME280;42800;53.928;27.662;2023-02-12T03:11:11;99546.38;;;-3.20;100.00
56912;BME280;42800;53.928;27.662;2023-02-12T03:13:42;99568.31;;;-3.38;100.00
56912;BME280;42800;53.928;27.662;2023-02-12T03:16:16;99601.34;;;-3.17;100.00
56912;BME280;42800;53.928;27.662;2023-02-12T03:18:45;99645.34;;;-3.18;100.00
56912;BME280;42800;53.928;27.662;2023-02-12T03:21:19;99671.13;;;-3.02;100.00
56912;BME280;42800;53.928;27.662;2023-02-12T03:23:51;99675.03;;;-3.30;100.00
56912;BME280;42800;53.928;27.662;2023-02-12T03:26:21;99697.13;;;-3.08;100.00
56912;BME280;42800;53.928;27.662;2023-02-12T03:28:48;99705.72;;;-3.05;100.00
56912;BME280;42800;53.928;27.662;2023-02-12T03:31:21;99717.59;;;-2.96;100.00
56912;BME280;42800;53.928;27.662;2023-02-12T03:34:00;99718.91;;;-2.99;100.00
56912;BME280;42800;53.928;27.662;2023-02-12T03:36:34;99719.97;;;-3.00;100.00
56912;BME280;42800;53.928;27.662;2023-02-12T03:39:07;99741.72;;;-2.96;100.00
56912;BME280;42800;53.928;27.662;2023-02-12T03:41:41;99743.81;;;-3.09;100.00
56912;BME280;42800;53.928;27.662;2023-02-12T03:44:15;99766.91;;;-2.97;100.00
56912;BME280;42800;53.928;27.662;2023-02-12T03:46:52;99771.94;;;-3.11;100.00
56912;BME280;42800;53.928;27.662;2023-02-12T03:49:27;99784.50;;;-3.22;100.00
56912;BME280;42800;53.928;27.662;2023-02-12T03:51:56;99789.13;;;-3.12;100.00
56912;BME280;42800;53.928;27.662;2023-02-12T03:54:23;99802.47;;;-3.17;100.00
56912;BME280;42800;53.928;27.662;2023-02-12T03:56:52;99821.00;;;-3.16;100.00
56912;BME280;42800;53.928;27.662;2023-02-12T03:59:21;99815.34;;;-3.19;100.00
56912;BME280;42800;53.928;27.662;2023-02-12T04:01:49;99802.19;;;-3.21;100.00
56912;BME280;42800;53.928;27.662;2023-02-12T04:04:16;99802.09;;;-3.36;100.00
56912;BME280;42800;53.928;27.662;2023-02-12T04:06:44;99825.72;;;-3.33;100.00
56912;BME280;42800;53.928;27.662;2023-02-12T04:09:12;99826.84;;;-3.24;100.00
56912;BME280;42800;53.928;27.662;2023-02-12T04:11:53;99812.22;;;-3.43;100.00
56912;BME280;42800;53.928;27.662;2023-02-12T04:14:30;99829.34;;;-3.49;100.00
56912;BME280;42800;53.928;27.662;2023-02-12T04:17:05;99847.16;;;-3.65;100.00
56912;BME280;42800;53.928;27.662;2023-02-12T04:19:42;99866.94;;;-3.71;100.00
56912;BME280;42800;53.928;27.662;2023-02-12T04:22:26;99909.81;;;-3.71;100.00
56912;BME280;42800;53.928;27.662;2023-02-12T04:25:01;99916.56;;;-3.91;100.00
56912;BME280;42800;53.928;27.662;2023-02-12T04:27:34;99957.50;;;-3.95;100.00
56912;BME280;42800;53.928;27.662;2023-02-12T04:30:05;99981.03;;;-3.97;100.00
56912;BME280;42800;53.928;27.662;2023-02-12T04:32:37;99982.47;;;-4.12;100.00
56912;BME280;42800;53.928;27.662;2023-02-12T04:35:18;100027.94;;;-3.95;100.00
56912;BME280;42800;53.928;27.662;2023-02-12T04:37:47;100046.44;;;-3.93;100.00
56912;BME280;42800;53.928;27.662;2023-02-12T04:40:17;100055.00;;;-3.96;100.00
56912;BME280;42800;53.928;27.662;2023-02-12T04:42:45;100068.84;;;-3.83;100.00
56912;BME280;42800;53.928;27.662;2023-02-12T04:45:14;100087.47;;;-3.93;100.00
56912;BME280;42800;53.928;27.662;2023-02-12T04:47:42;100076.47;;;-3.91;100.00
56912;BME280;42800;53.928;27.662;2023-02-12T04:50:08;100070.81;;;-3.95;100.00
56912;BME280;42800;53.928;27.662;2023-02-12T04:52:35;100105.78;;;-3.85;100.00
56912;BME280;42800;53.928;27.662;2023-02-12T04:55:01;100099.03;;;-3.87;100.00
56912;BME280;42800;53.928;27.662;2023-02-12T04:57:27;100089.97;;;-3.86;100.00
56912;BME280;42800;53.928;27.662;2023-02-12T04:59:54;100067.63;;;-3.92;100.00
56912;BME280;42800;53.928;27.662;2023-02-12T05:02:20;100076.88;;;-3.83;100.00
56912;BME280;42800;53.928;27.662;2023-02-12T05:04:48;100091.91;;;-3.60;100.00
56912;BME280;42800;53.928;27.662;2023-02-12T05:07:14;100066.47;;;-3.57;100.00
56912;BME280;42800;53.928;27.662;2023-02-12T05:09:41;100064.50;;;-3.84;100.00
56912;BME280;42800;53.928;27.662;2023-02-12T05:12:07;100064.47;;;-3.89;100.00
56912;BME280;42800;53.928;27.662;2023-02-12T05:14:33;100081.97;;;-3.81;100.00
56912;BME280;42800;53.928;27.662;2023-02-12T05:17:00;100088.22;;;-3.75;100.00
56912;BME280;42800;53.928;27.662;2023-02-12T05:19:26;100083.94;;;-3.76;100.00
56912;BME280;42800;53.928;27.662;2023-02-12T05:21:53;100093.50;;;-3.81;100.00
56912;BME280;42800;53.928;27.662;2023-02-12T05:24:19;100086.69;;;-3.88;100.00
56912;BME280;42800;53.928;27.662;2023-02-12T05:26:47;100093.09;;;-3.72;100.00
56912;BME280;42800;53.928;27.662;2023-02-12T05:29:14;100086.69;;;-3.88;100.00
56912;BME280;42800;53.928;27.662;2023-02-12T05:31:40;100094.19;;;-4.07;100.00
56912;BME280;42800;53.928;27.662;2023-02-12T05:34:09;100129.06;;;-3.85;100.00
56912;BME280;42800;53.928;27.662;2023-02-12T05:36:36;100119.00;;;-3.78;100.00
56912;BME280;42800;53.928;27.662;2023-02-12T05:39:03;100112.06;;;-3.96;100.00
56912;BME280;42800;53.928;27.662;2023-02-12T05:41:30;100123.72;;;-3.85;100.00
56912;BME280;42800;53.928;27.662;2023-02-12T05:43:59;100123.00;;;-4.14;100.00
56912;BME280;42800;53.928;27.662;2023-02-12T05:46:25;100182.41;;;-4.00;100.00
56912;BME280;42800;53.928;27.662;2023-02-12T05:48:52;100165.53;;;-4.18;100.00
56912;BME280;42800;53.928;27.662;2023-02-12T05:51:21;100189.25;;;-4.10;100.00
56912;BME280;42800;53.928;27.662;2023-02-12T05:53:48;100195.97;;;-4.07;100.00
56912;BME280;42800;53.928;27.662;2023-02-12T05:56:16;100208.06;;;-4.05;100.00
56912;BME280;42800;53.928;27.662;2023-02-12T05:58:45;100198.09;;;-3.92;100.00
56912;BME280;42800;53.928;27.662;2023-02-12T06:01:13;100180.31;;;-4.15;100.00
56912;BME280;42800;53.928;27.662;2023-02-12T06:03:40;100188.41;;;-4.27;100.00
56912;BME280;42800;53.928;27.662;2023-02-12T06:06:06;100206.75;;;-4.19;100.00
56912;BME280;42800;53.928;27.662;2023-02-12T06:08:33;100214.66;;;-4.12;100.00
56912;BME280;42800;53.928;27.662;2023-02-12T06:11:00;100203.69;;;-4.11;100.00
56912;BME280;42800;53.928;27.662;2023-02-12T06:13:28;100199.13;;;-4.10;100.00
56912;BME280;42800;53.928;27.662;2023-02-12T06:15:54;100180.00;;;-4.19;100.00
56912;BME280;42800;53.928;27.662;2023-02-12T06:18:20;100194.19;;;-4.02;100.00
56912;BME280;42800;53.928;27.662;2023-02-12T06:20:47;100189.47;;;-4.11;100.00
56912;BME280;42800;53.928;27.662;2023-02-12T06:23:13;100217.88;;;-3.93;100.00
56912;BME280;42800;53.928;27.662;2023-02-12T06:25:39;100200.19;;;-4.11;100.00
56912;BME280;42800;53.928;27.662;2023-02-12T06:28:05;100226.97;;;-3.94;100.00
56912;BME280;42800;53.928;27.662;2023-02-12T06:30:33;100228.59;;;-3.93;100.00
56912;BME280;42800;53.928;27.662;2023-02-12T06:33:00;100236.41;;;-3.75;100.00
56912;BME280;42800;53.928;27.662;2023-02-12T06:35:26;100233.47;;;-3.18;100.00
56912;BME280;42800;53.928;27.662;2023-02-12T06:37:52;100165.66;;;-2.37;100.00
56912;BME280;42800;53.928;27.662;2023-02-12T06:40:19;99985.78;;;-1.74;100.00
56912;BME280;42800;53.928;27.662;2023-02-12T06:42:45;99745.94;;;-1.20;100.00
56912;BME280;42800;53.928;27.662;2023-02-12T06:45:11;99523.09;;;-0.68;100.00
56912;BME280;42800;53.928;27.662;2023-02-12T06:47:38;99397.34;;;-0.68;100.00
56912;BME280;42800;53.928;27.662;2023-02-12T06:50:06;99365.72;;;-0.81;100.00
56912;BME280;42800;53.928;27.662;2023-02-12T06:52:32;99372.50;;;-0.60;100.00
56912;BME280;42800;53.928;27.662;2023-02-12T06:54:58;99389.50;;;-0.40;100.00
56912;BME280;42800;53.928;27.662;2023-02-12T06:57:24;99426.28;;;-0.79;100.00
56912;BME280;42800;53.928;27.662;2023-02-12T06:59:50;99425.00;;;-0.86;100.00
56912;BME280;42800;53.928;27.662;2023-02-12T07:02:17;99411.44;;;-1.45;100.00
56912;BME280;42800;53.928;27.662;2023-02-12T07:04:44;99389.38;;;-1.42;100.00
56912;BME280;42800;53.928;27.662;2023-02-12T07:07:10;99386.28;;;-1.25;100.00
56912;BME280;42800;53.928;27.662;2023-02-12T07:09:36;99384.81;;;-1.85;100.00
56912;BME280;42800;53.928;27.662;2023-02-12T07:12:03;99398.25;;;-1.85;100.00
56912;BME280;42800;53.928;27.662;2023-02-12T07:14:29;99413.59;;;-1.91;100.00
56912;BME280;42800;53.928;27.662;2023-02-12T07:16:55;99425.19;;;-1.51;100.00
56912;BME280;42800;53.928;27.662;2023-02-12T07:19:22;99428.78;;;-1.22;100.00
56912;BME280;42800;53.928;27.662;2023-02-12T07:21:49;99414.81;;;-0.95;100.00
56912;BME280;42800;53.928;27.662;2023-02-12T07:24:15;99423.41;;;-0.63;100.00
56912;BME280;42800;53.928;27.662;2023-02-12T07:26:43;99431.50;;;-0.63;100.00
56912;BME280;42800;53.928;27.662;2023-02-12T07:29:09;99455.97;;;-0.07;100.00
56912;BME280;42800;53.928;27.662;2023-02-12T07:31:36;99480.72;;;0.19;100.00
56912;BME280;42800;53.928;27.662;2023-02-12T07:34:02;99522.78;;;1.20;100.00
56912;BME280;42800;53.928;27.662;2023-02-12T07:36:31;99606.00;;;1.18;100.00
56912;BME280;42800;53.928;27.662;2023-02-12T07:38:59;99668.78;;;1.29;100.00
56912;BME280;42800;53.928;27.662;2023-02-12T07:41:27;99699.84;;;1.26;100.00
56912;BME280;42800;53.928;27.662;2023-02-12T07:43:56;99735.94;;;1.35;100.00
56912;BME280;42800;53.928;27.662;2023-02-12T07:46:24;99762.19;;;1.73;100.00
56912;BME280;42800;53.928;27.662;2023-02-12T07:48:54;99771.81;;;1.60;100.00
56912;BME280;42800;53.928;27.662;2023-02-12T07:51:21;99781.72;;;1.27;100.00
56912;BME280;42800;53.928;27.662;2023-02-12T07:53:48;99794.97;;;0.99;100.00
56912;BME280;42800;53.928;27.662;2023-02-12T07:56:17;99766.09;;;0.41;100.00
56912;BME280;42800;53.928;27.662;2023-02-12T07:58:44;99729.03;;;0.52;100.00
56912;BME280;42800;53.928;27.662;2023-02-12T08:01:16;99709.31;;;-0.46;100.00
56912;BME280;42800;53.928;27.662;2023-02-12T08:03:43;99642.19;;;-0.03;100.00
56912;BME280;42800;53.928;27.662;2023-02-12T08:06:11;99654.06;;;-0.43;100.00
56912;BME280;42800;53.928;27.662;2023-02-12T08:08:38;99619.72;;;-0.28;100.00
56912;BME280;42800;53.928;27.662;2023-02-12T08:11:05;99598.34;;;-0.48;100.00
56912;BME280;42800;53.928;27.662;2023-02-12T08:13:32;99575.84;;;-0.67;100.00
56912;BME280;42800;53.928;27.662;2023-02-12T08:15:59;99546.94;;;-0.57;100.00
56912;BME280;42800;53.928;27.662;2023-02-12T08:18:26;99548.94;;;-0.33;100.00
56912;BME280;42800;53.928;27.662;2023-02-12T08:20:52;99555.53;;;-0.50;100.00
56912;BME280;42800;53.928;27.662;2023-02-12T08:23:18;99544.72;;;-0.44;100.00
56912;BME280;42800;53.928;27.662;2023-02-12T08:25:44;99548.44;;;-0.40;100.00
56912;BME280;42800;53.928;27.662;2023-02-12T08:28:11;99562.84;;;-0.55;100.00
56912;BME280;42800;53.928;27.662;2023-02-12T08:30:38;99554.72;;;-0.21;100.00
56912;BME280;42800;53.928;27.662;2023-02-12T08:33:04;99570.84;;;0.37;100.00
56912;BME280;42800;53.928;27.662;2023-02-12T08:35:30;99616.34;;;0.68;100.00
56912;BME280;42800;53.928;27.662;2023-02-12T08:37:56;99650.81;;;0.23;100.00
56912;BME280;42800;53.928;27.662;2023-02-12T08:40:22;99670.69;;;0.32;100.00
56912;BME280;42800;53.928;27.662;2023-02-12T08:42:48;99670.91;;;0.65;100.00
56912;BME280;42800;53.928;27.662;2023-02-12T08:45:15;99686.56;;;1.11;100.00
56912;BME280;42800;53.928;27.662;2023-02-12T08:47:42;99716.84;;;0.84;100.00
56912;BME280;42800;53.928;27.662;2023-02-12T08:50:08;99732.03;;;1.04;100.00
56912;BME280;42800;53.928;27.662;2023-02-12T08:52:35;99745.19;;;1.29;100.00
56912;BME280;42800;53.928;27.662;2023-02-12T08:55:01;99776.09;;;1.85;100.00
56912;BME280;42800;53.928;27.662;2023-02-12T08:57:27;99830.72;;;1.63;100.00
56912;BME280;42800;53.928;27.662;2023-02-12T08:59:53;99848.94;;;1.76;100.00
56912;BME280;42800;53.928;27.662;2023-02-12T09:02:19;99858.50;;;1.45;100.00
56912;BME280;42800;53.928;27.662;2023-02-12T09:04:46;99842.53;;;1.24;100.00
56912;BME280;42800;53.928;27.662;2023-02-12T09:07:13;99817.06;;;1.54;100.00
56912;BME280;42800;53.928;27.662;2023-02-12T09:09:39;99821.56;;;1.59;100.00
56912;BME280;42800;53.928;27.662;2023-02-12T09:12:05;99828.03;;;1.39;100.00
56912;BME280;42800;53.928;27.662;2023-02-12T09:14:31;99818.38;;;1.33;100.00
56912;BME280;42800;53.928;27.662;2023-02-12T09:16:58;99807.66;;;0.99;100.00
56912;BME280;42800;53.928;27.662;2023-02-12T09:19:24;99814.81;;;0.55;100.00
56912;BME280;42800;53.928;27.662;2023-02-12T09:21:52;99777.19;;;0.01;100.00
56912;BME280;42800;53.928;27.662;2023-02-12T09:24:18;99717.53;;;-0.27;100.00
56912;BME280;42800;53.928;27.662;2023-02-12T09:26:44;99663.28;;;-0.55;100.00
56912;BME280;42800;53.928;27.662;2023-02-12T09:29:10;99630.00;;;-0.69;100.00
56912;BME280;42800;53.928;27.662;2023-02-12T09:31:36;99611.84;;;-0.92;100.00
56912;BME280;42800;53.928;27.662;2023-02-12T09:34:05;99590.13;;;-1.06;100.00
56912;BME280;42800;53.928;27.662;2023-02-12T09:36:32;99569.59;;;-0.97;100.00
56912;BME280;42800;53.928;27.662;2023-02-12T09:38:59;99553.75;;;-1.04;100.00
56912;BME280;42800;53.928;27.662;2023-02-12T09:44:35;99536.59;;;-1.13;100.00
56912;BME280;42800;53.928;27.662;2023-02-12T09:47:10;99524.34;;;-0.90;100.00
56912;BME280;42800;53.928;27.662;2023-02-12T09:49:52;99526.59;;;-0.68;100.00
56912;BME280;42800;53.928;27.662;2023-02-12T09:52:24;99521.88;;;-0.52;100.00
56912;BME280;42800;53.928;27.662;2023-02-12T09:54:52;99524.41;;;-0.32;100.00
56912;BME280;42800;53.928;27.662;2023-02-12T09:57:23;99541.66;;;-0.33;100.00
56912;BME280;42800;53.928;27.662;2023-02-12T09:59:53;99553.69;;;-0.25;100.00
56912;BME280;42800;53.928;27.662;2023-02-12T10:02:23;99567.75;;;-0.62;100.00
56912;BME280;42800;53.928;27.662;2023-02-12T10:04:50;99565.84;;;-0.28;100.00
56912;BME280;42800;53.928;27.662;2023-02-12T10:07:22;99568.97;;;-0.15;100.00
56912;BME280;42800;53.928;27.662;2023-02-12T10:10:13;99597.47;;;-0.38;100.00
56912;BME280;42800;53.928;27.662;2023-02-12T10:12:50;99594.34;;;-0.21;100.00
56912;BME280;42800;53.928;27.662;2023-02-12T10:15:29;99596.84;;;-0.30;100.00
56912;BME280;42800;53.928;27.662;2023-02-12T10:18:03;99611.41;;;-0.65;100.00
56912;BME280;42800;53.928;27.662;2023-02-12T10:20:43;99595.56;;;-0.38;100.00
56912;BME280;42800;53.928;27.662;2023-02-12T10:23:26;99579.13;;;-0.36;100.00
56912;BME280;42800;53.928;27.662;2023-02-12T10:26:02;99588.50;;;-0.29;100.00
56912;BME280;42800;53.928;27.662;2023-02-12T10:28:37;99597.47;;;-0.43;100.00
56912;BME280;42800;53.928;27.662;2023-02-12T10:31:07;99599.81;;;-0.32;100.00
56912;BME280;42800;53.928;27.662;2023-02-12T10:33:41;99594.16;;;-0.30;100.00
56912;BME280;42800;53.928;27.662;2023-02-12T10:36:15;99617.25;;;-0.53;100.00
56912;BME280;42800;53.928;27.662;2023-02-12T10:38:47;99622.72;;;-0.29;100.00
56912;BME280;42800;53.928;27.662;2023-02-12T10:41:16;99641.09;;;-0.07;100.00
56912;BME280;42800;53.928;27.662;2023-02-12T10:43:42;99658.03;;;0.04;100.00
56912;BME280;42800;53.928;27.662;2023-02-12T10:46:12;99649.06;;;0.37;100.00
56912;BME280;42800;53.928;27.662;2023-02-12T10:48:43;99671.63;;;0.46;100.00
56912;BME280;42800;53.928;27.662;2023-02-12T10:51:33;99715.78;;;0.56;100.00
56912;BME280;42800;53.928;27.662;2023-02-12T10:54:35;99751.28;;;0.68;100.00
56912;BME280;42800;53.928;27.662;2023-02-12T10:57:18;99772.03;;;0.97;100.00
56912;BME280;42800;53.928;27.662;2023-02-12T10:59:47;99809.94;;;0.57;100.00
56912;BME280;42800;53.928;27.662;2023-02-12T11:02:18;99809.22;;;0.76;100.00
56912;BME280;42800;53.928;27.662;2023-02-12T11:04:46;99833.09;;;0.63;100.00
56912;BME280;42800;53.928;27.662;2023-02-12T11:07:12;99841.09;;;1.03;100.00
56912;BME280;42800;53.928;27.662;2023-02-12T11:09:40;99870.59;;;1.23;100.00
56912;BME280;42800;53.928;27.662;2023-02-12T11:12:19;99900.47;;;1.61;100.00
56912;BME280;42800;53.928;27.662;2023-02-12T11:14:48;99916.06;;;1.69;100.00
56912;BME280;42800;53.928;27.662;2023-02-12T11:17:22;99929.47;;;2.03;100.00
56912;BME280;42800;53.928;27.662;2023-02-12T11:20:01;99969.44;;;1.82;100.00
56912;BME280;42800;53.928;27.662;2023-02-12T11:22:28;99957.03;;;1.81;100.00
56912;BME280;42800;53.928;27.662;2023-02-12T11:25:00;99936.44;;;2.28;100.00
56912;BME280;42800;53.928;27.662;2023-02-12T11:27:29;99954.00;;;2.50;100.00
56912;BME280;42800;53.928;27.662;2023-02-12T11:30:14;99995.19;;;2.04;100.00
56912;BME280;42800;53.928;27.662;2023-02-12T11:32:41;100000.16;;;1.68;100.00
56912;BME280;42800;53.928;27.662;2023-02-12T11:35:12;99977.66;;;1.43;100.00
56912;BME280;42800;53.928;27.662;2023-02-12T11:37:41;99944.94;;;1.21;100.00
56912;BME280;42800;53.928;27.662;2023-02-12T11:40:15;99938.06;;;1.33;100.00
56912;BME280;42800;53.928;27.662;2023-02-12T11:42:49;99932.16;;;1.26;100.00
56912;BME280;42800;53.928;27.662;2023-02-12T11:45:19;99934.59;;;1.28;100.00
56912;BME280;42800;53.928;27.662;2023-02-12T11:47:47;99939.22;;;1.22;100.00
56912;BME280;42800;53.928;27.662;2023-02-12T11:50:23;99938.47;;;0.82;100.00
56912;BME280;42800;53.928;27.662;2023-02-12T11:52:53;99925.41;;;0.60;100.00
56912;BME280;42800;53.928;27.662;2023-02-12T11:55:24;99882.41;;;0.69;100.00
56912;BME280;42800;53.928;27.662;2023-02-12T11:57:53;99879.63;;;0.45;100.00
56912;BME280;42800;53.928;27.662;2023-02-12T12:00:28;99858.69;;;0.32;100.00
56912;BME280;42800;53.928;27.662;2023-02-12T12:02:59;99859.38;;;0.08;100.00
56912;BME280;42800;53.928;27.662;2023-02-12T12:05:30;99858.13;;;0.30;100.00
56912;BME280;42800;53.928;27.662;2023-02-12T12:08:03;99850.28;;;0.38;100.00
56912;BME280;42800;53.928;27.662;2023-02-12T12:10:35;99851.31;;;0.42;100.00
56912;BME280;42800;53.928;27.662;2023-02-12T12:13:10;99881.44;;;0.15;100.00
56912;BME280;42800;53.928;27.662;2023-02-12T12:15:41;99871.25;;;0.02;100.00
56912;BME280;42800;53.928;27.662;2023-02-12T12:18:32;99872.34;;;0.01;100.00
56912;BME280;42800;53.928;27.662;2023-02-12T12:21:23;99859.41;;;-0.02;100.00
56912;BME280;42800;53.928;27.662;2023-02-12T12:23:58;99862.06;;;0.03;100.00
56912;BME280;42800;53.928;27.662;2023-02-12T12:26:27;99857.69;;;0.17;100.00
56912;BME280;42800;53.928;27.662;2023-02-12T12:29:00;99859.66;;;0.02;100.00
56912;BME280;42800;53.928;27.662;2023-02-12T12:31:33;99867.25;;;-0.06;100.00
56912;BME280;42800;53.928;27.662;2023-02-12T12:34:05;99863.50;;;0.35;100.00
56912;BME280;42800;53.928;27.662;2023-02-12T12:36:52;99874.53;;;0.43;100.00
56912;BME280;42800;53.928;27.662;2023-02-12T12:39:27;99886.13;;;0.39;100.00
56912;BME280;42800;53.928;27.662;2023-02-12T12:42:17;99898.22;;;0.02;100.00
56912;BME280;42800;53.928;27.662;2023-02-12T12:45:01;99893.00;;;0.21;100.00
56912;BME280;42800;53.928;27.662;2023-02-12T12:47:36;99860.81;;;0.35;100.00
56912;BME280;42800;53.928;27.662;2023-02-12T12:50:22;99869.53;;;0.61;100.00
56912;BME280;42800;53.928;27.662;2023-02-12T12:53:02;99845.28;;;0.56;100.00
56912;BME280;42800;53.928;27.662;2023-02-12T12:55:53;99854.72;;;0.58;100.00
56912;BME280;42800;53.928;27.662;2023-02-12T12:58:32;99845.41;;;0.75;100.00